sensor_id;sensor_type;location;lat;lon;timestamp;pressure;altitude;pressure_sealevel;temperature;humidity
21185;BME280;18176;49.502;11.754;2023-01-27T00:03:40;97072.81;;;4.91;59.12
21185;BME280;18176;49.502;11.754;2023-01-27T00:07:41;97081.81;;;5.04;59.03
21185;BME280;18176;49.502;11.754;2023-01-27T00:11:43;97077.16;;;5.06;58.92
21185;BME280;18176;49.502;11.754;2023-01-27T00:15:58;97076.50;;;5.25;58.33
21185;BME280;18176;49.502;11.754;2023-01-27T00:19:58;97075.34;;;5.34;58.20
21185;BME280;18176;49.502;11.754;2023-01-27T00:24:00;97060.38;;;5.07;58.64
21185;BME280;18176;49.502;11.754;2023-01-27T00:28:12;97084.22;;;5.33;58.32
21185;BME280;18176;49.502;11.754;2023-01-27T00:32:21;97073.72;;;5.39;58.11
21185;BME280;18176;49.502;11.754;2023-01-27T00:36:35;97085.53;;;5.50;57.86
21185;BME280;18176;49.502;11.754;2023-01-27T00:40:35;97073.38;;;5.49;57.71
21185;BME280;18176;49.502;11.754;2023-01-27T00:44:36;97086.50;;;5.42;57.98
21185;BME280;18176;49.502;11.754;2023-01-27T00:48:58;97095.94;;;5.37;58.05
21185;BME280;18176;49.502;11.754;2023-01-27T00:52:59;97059.09;;;5.24;57.74
21185;BME280;18176;49.502;11.754;2023-01-27T00:56:59;97080.38;;;5.35;57.70
21185;BME280;18176;49.502;11.754;2023-01-27T01:01:03;97086.22;;;5.31;57.84
21185;BME280;18176;49.502;11.754;2023-01-27T01:05:07;97094.22;;;5.23;58.01
21185;BME280;18176;49.502;11.754;2023-01-27T01:09:07;97096.66;;;5.18;57.95
21185;BME280;18176;49.502;11.754;2023-01-27T01:13:07;97102.66;;;5.12;58.16
21185;BME280;18176;49.502;11.754;2023-01-27T01:17:08;97100.22;;;5.10;57.96
21185;BME280;18176;49.502;11.754;2023-01-27T01:21:12;97097.50;;;5.25;57.67
21185;BME280;18176;49.502;11.754;2023-01-27T01:25:12;97098.25;;;5.19;57.88
21185;BME280;18176;49.502;11.754;2023-01-27T01:29:12;97094.78;;;5.12;57.83
21185;BME280;18176;49.502;11.754;2023-01-27T01:33:13;97097.31;;;5.26;57.31
21185;BME280;18176;49.502;11.754;2023-01-27T01:37:15;97091.28;;;5.05;57.94
21185;BME280;18176;49.502;11.754;2023-01-27T01:41:18;97097.25;;;5.20;57.35
21185;BME280;18176;49.502;11.754;2023-01-27T01:45:46;97089.63;;;5.25;57.37
21185;BME280;18176;49.502;11.754;2023-01-27T01:49:47;97093.41;;;5.16;57.46
21185;BME280;18176;49.502;11.754;2023-01-27T01:53:55;97098.41;;;5.11;57.69
21185;BME280;18176;49.502;11.754;2023-01-27T01:57:56;97091.53;;;5.10;57.62
21185;BME280;18176;49.502;11.754;2023-01-27T02:02:02;97094.94;;;5.04;57.75
21185;BME280;18176;49.502;11.754;2023-01-27T02:06:04;97101.03;;;5.11;57.95
21185;BME280;18176;49.502;11.754;2023-01-27T02:10:09;97097.41;;;5.12;57.64
21185;BME280;18176;49.502;11.754;2023-01-27T02:14:12;97095.16;;;5.09;57.95
21185;BME280;18176;49.502;11.754;2023-01-27T02:18:17;97092.47;;;5.02;57.84
21185;BME280;18176;49.502;11.754;2023-01-27T02:22:25;97098.53;;;5.03;57.82
21185;BME280;18176;49.502;11.754;2023-01-27T02:26:34;97085.16;;;4.97;57.66
21185;BME280;18176;49.502;11.754;2023-01-27T02:30:36;97094.81;;;4.90;58.23
21185;BME280;18176;49.502;11.754;2023-01-27T02:34:37;97094.06;;;4.96;57.94
21185;BME280;18176;49.502;11.754;2023-01-27T02:38:43;97102.94;;;4.95;57.87
21185;BME280;18176;49.502;11.754;2023-01-27T02:42:48;97107.09;;;4.83;58.15
21185;BME280;18176;49.502;11.754;2023-01-27T02:46:49;97098.81;;;4.86;58.07
21185;BME280;18176;49.502;11.754;2023-01-27T02:50:52;97085.81;;;5.00;57.68
21185;BME280;18176;49.502;11.754;2023-01-27T02:54:52;97088.44;;;5.00;57.63
21185;BME280;18176;49.502;11.754;2023-01-27T02:58:54;97099.69;;;4.93;57.63
21185;BME280;18176;49.502;11.754;2023-01-27T03:03:03;97091.47;;;4.75;57.45
21185;BME280;18176;49.502;11.754;2023-01-27T03:07:03;97072.72;;;4.78;57.59
21185;BME280;18176;49.502;11.754;2023-01-27T03:11:04;97079.63;;;4.86;57.49
21185;BME280;18176;49.502;11.754;2023-01-27T03:15:09;97071.75;;;4.86;57.28
21185;BME280;18176;49.502;11.754;2023-01-27T03:19:22;97081.06;;;4.88;57.35
21185;BME280;18176;49.502;11.754;2023-01-27T03:23:22;97085.06;;;4.84;57.36
21185;BME280;18176;49.502;11.754;2023-01-27T03:27:24;97088.72;;;4.83;57.60
21185;BME280;18176;49.502;11.754;2023-01-27T03:31:50;97093.78;;;5.13;56.93
21185;BME280;18176;49.502;11.754;2023-01-27T03:35:51;97089.63;;;4.97;57.07
21185;BME280;18176;49.502;11.754;2023-01-27T03:40:07;97076.31;;;4.98;57.10
21185;BME280;18176;49.502;11.754;2023-01-27T03:44:20;97077.50;;;4.96;57.27
21185;BME280;18176;49.502;11.754;2023-01-27T03:48:36;97088.44;;;5.00;57.13
21185;BME280;18176;49.502;11.754;2023-01-27T03:52:36;97089.06;;;5.02;57.18
21185;BME280;18176;49.502;11.754;2023-01-27T03:56:36;97082.53;;;4.97;57.27
21185;BME280;18176;49.502;11.754;2023-01-27T04:00:36;97088.38;;;4.93;57.32
21185;BME280;18176;49.502;11.754;2023-01-27T04:04:39;97086.81;;;4.98;57.13
21185;BME280;18176;49.502;11.754;2023-01-27T04:08:52;97067.72;;;4.83;57.25
21185;BME280;18176;49.502;11.754;2023-01-27T04:12:52;97082.94;;;4.94;57.33
21185;BME280;18176;49.502;11.754;2023-01-27T04:16:55;97082.78;;;5.03;56.95
21185;BME280;18176;49.502;11.754;2023-01-27T04:20:58;97077.88;;;4.93;57.32
21185;BME280;18176;49.502;11.754;2023-01-27T04:24:58;97076.69;;;4.95;57.18
21185;BME280;18176;49.502;11.754;2023-01-27T04:28:59;97086.03;;;5.05;56.87
21185;BME280;18176;49.502;11.754;2023-01-27T04:32:59;97080.16;;;5.03;56.81
21185;BME280;18176;49.502;11.754;2023-01-27T04:37:05;97073.81;;;4.90;56.95
21185;BME280;18176;49.502;11.754;2023-01-27T04:41:05;97059.41;;;4.80;57.21
21185;BME280;18176;49.502;11.754;2023-01-27T04:45:08;97080.69;;;4.91;57.05
21185;BME280;18176;49.502;11.754;2023-01-27T04:49:09;97076.22;;;4.85;57.27
21185;BME280;18176;49.502;11.754;2023-01-27T04:53:12;97092.84;;;4.92;57.18
21185;BME280;18176;49.502;11.754;2023-01-27T04:57:12;97093.31;;;4.81;57.06
21185;BME280;18176;49.502;11.754;2023-01-27T05:01:12;97106.19;;;4.97;56.89
21185;BME280;18176;49.502;11.754;2023-01-27T05:05:12;97109.66;;;5.05;56.82
21185;BME280;18176;49.502;11.754;2023-01-27T05:09:15;97123.94;;;4.95;56.75
21185;BME280;18176;49.502;11.754;2023-01-27T05:13:16;97118.81;;;5.09;57.01
21185;BME280;18176;49.502;11.754;2023-01-27T05:17:16;97122.50;;;5.21;56.32
21185;BME280;18176;49.502;11.754;2023-01-27T05:21:18;97125.94;;;4.93;57.06
21185;BME280;18176;49.502;11.754;2023-01-27T05:25:21;97104.09;;;4.65;57.12
21185;BME280;18176;49.502;11.754;2023-01-27T05:29:22;97137.31;;;4.79;57.44
21185;BME280;18176;49.502;11.754;2023-01-27T05:33:22;97135.47;;;4.94;57.82
21185;BME280;18176;49.502;11.754;2023-01-27T05:37:22;97142.94;;;4.97;57.91
21185;BME280;18176;49.502;11.754;2023-01-27T05:41:27;97147.13;;;5.13;56.75
21185;BME280;18176;49.502;11.754;2023-01-27T05:45:27;97130.81;;;4.96;57.52
21185;BME280;18176;49.502;11.754;2023-01-27T05:49:27;97148.94;;;5.13;57.27
21185;BME280;18176;49.502;11.754;2023-01-27T05:53:28;97129.91;;;4.83;57.07
21185;BME280;18176;49.502;11.754;2023-01-27T05:57:30;97163.56;;;5.01;57.11
21185;BME280;18176;49.502;11.754;2023-01-27T06:01:33;97163.06;;;4.90;56.94
21185;BME280;18176;49.502;11.754;2023-01-27T06:05:34;97145.59;;;4.76;56.89
21185;BME280;18176;49.502;11.754;2023-01-27T06:09:34;97175.56;;;4.88;57.15
21185;BME280;18176;49.502;11.754;2023-01-27T06:13:37;97169.69;;;4.86;56.88
21185;BME280;18176;49.502;11.754;2023-01-27T06:17:38;97177.09;;;4.76;57.87
21185;BME280;18176;49.502;11.754;2023-01-27T06:21:38;97165.47;;;4.85;57.66
21185;BME280;18176;49.502;11.754;2023-01-27T06:25:40;97140.19;;;4.63;57.15
21185;BME280;18176;49.502;11.754;2023-01-27T06:29:43;97161.88;;;4.93;57.30
21185;BME280;18176;49.502;11.754;2023-01-27T06:33:44;97156.72;;;5.00;57.13
21185;BME280;18176;49.502;11.754;2023-01-27T06:37:44;97160.06;;;4.93;56.93
21185;BME280;18176;49.502;11.754;2023-01-27T06:41:48;97160.69;;;4.95;57.08
21185;BME280;18176;49.502;11.754;2023-01-27T06:45:52;97155.34;;;4.82;57.37
21185;BME280;18176;49.502;11.754;2023-01-27T06:49:53;97181.06;;;4.93;57.04
21185;BME280;18176;49.502;11.754;2023-01-27T06:53:53;97178.81;;;4.90;56.89
21185;BME280;18176;49.502;11.754;2023-01-27T06:57:54;97180.72;;;4.75;56.98
21185;BME280;18176;49.502;11.754;2023-01-27T07:01:56;97202.22;;;4.85;56.66
21185;BME280;18176;49.502;11.754;2023-01-27T07:05:58;97111.66;;;4.33;56.76
21185;BME280;18176;49.502;11.754;2023-01-27T07:09:58;97178.28;;;4.74;57.10
21185;BME280;18176;49.502;11.754;2023-01-27T07:13:58;97159.97;;;4.59;57.06
21185;BME280;18176;49.502;11.754;2023-01-27T07:18:03;97204.50;;;4.95;57.10
21185;BME280;18176;49.502;11.754;2023-01-27T07:22:04;97197.59;;;4.87;56.91
21185;BME280;18176;49.502;11.754;2023-01-27T07:26:04;97220.16;;;5.03;56.55
21185;BME280;18176;49.502;11.754;2023-01-27T07:30:20;97230.41;;;5.19;56.44
21185;BME280;18176;49.502;11.754;2023-01-27T07:34:23;97233.97;;;5.12;55.83
21185;BME280;18176;49.502;11.754;2023-01-27T07:38:23;97239.22;;;5.12;55.97
21185;BME280;18176;49.502;11.754;2023-01-27T07:42:24;97227.34;;;4.94;56.18
21185;BME280;18176;49.502;11.754;2023-01-27T07:46:24;97218.97;;;5.06;55.94
21185;BME280;18176;49.502;11.754;2023-01-27T07:50:27;97203.16;;;5.20;55.40
21185;BME280;18176;49.502;11.754;2023-01-27T07:54:35;97190.19;;;4.97;55.44
21185;BME280;18176;49.502;11.754;2023-01-27T07:58:35;97227.09;;;5.32;55.73
21185;BME280;18176;49.502;11.754;2023-01-27T08:02:35;97221.69;;;5.40;54.91
21185;BME280;18176;49.502;11.754;2023-01-27T08:06:39;97190.81;;;5.21;54.43
21185;BME280;18176;49.502;11.754;2023-01-27T08:10:39;97179.31;;;5.22;54.47
21185;BME280;18176;49.502;11.754;2023-01-27T08:15:44;97234.44;;;5.64;54.17
21185;BME280;18176;49.502;11.754;2023-01-27T08:19:36;97225.72;;;5.36;54.43
21185;BME280;18176;49.502;11.754;2023-01-27T08:23:39;97207.66;;;5.54;54.05
21185;BME280;18176;49.502;11.754;2023-01-27T08:27:39;97215.84;;;5.72;54.04
21185;BME280;18176;49.502;11.754;2023-01-27T08:31:39;97215.53;;;5.82;53.44
21185;BME280;18176;49.502;11.754;2023-01-27T08:35:40;97197.13;;;5.54;53.52
21185;BME280;18176;49.502;11.754;2023-01-27T08:39:44;97221.72;;;5.95;53.32
21185;BME280;18176;49.502;11.754;2023-01-27T08:43:44;97196.97;;;5.62;53.11
21185;BME280;18176;49.502;11.754;2023-01-27T08:47:45;97242.81;;;6.08;52.74
21185;BME280;18176;49.502;11.754;2023-01-27T08:51:45;97187.56;;;5.74;52.51
21185;BME280;18176;49.502;11.754;2023-01-27T08:55:49;97242.00;;;6.08;52.66
21185;BME280;18176;49.502;11.754;2023-01-27T08:59:51;97236.91;;;6.41;51.99
21185;BME280;18176;49.502;11.754;2023-01-27T09:08:30;97207.72;;;6.35;52.16
21185;BME280;18176;49.502;11.754;2023-01-27T09:12:33;97232.97;;;6.71;50.87
21185;BME280;18176;49.502;11.754;2023-01-27T09:16:33;97231.03;;;6.99;51.09
21185;BME280;18176;49.502;11.754;2023-01-27T09:20:34;97222.53;;;7.10;50.38
21185;BME280;18176;49.502;11.754;2023-01-27T09:24:34;97246.25;;;7.23;49.45
21185;BME280;18176;49.502;11.754;2023-01-27T09:28:39;97246.06;;;7.25;49.55
21185;BME280;18176;49.502;11.754;2023-01-27T09:32:39;97225.59;;;7.27;49.39
21185;BME280;18176;49.502;11.754;2023-01-27T09:36:46;97228.84;;;7.35;49.17
21185;BME280;18176;49.502;11.754;2023-01-27T09:41:20;97259.25;;;7.44;48.52
21185;BME280;18176;49.502;11.754;2023-01-27T09:46:01;97269.00;;;7.50;48.69
21185;BME280;18176;49.502;11.754;2023-01-27T09:50:34;97218.91;;;7.24;49.00
21185;BME280;18176;49.502;11.754;2023-01-27T09:54:55;97273.69;;;7.61;48.31
21185;BME280;18176;49.502;11.754;2023-01-27T10:03:52;97280.13;;;7.39;48.66
21185;BME280;18176;49.502;11.754;2023-01-27T10:08:17;97278.53;;;7.45;48.02
21185;BME280;18176;49.502;11.754;2023-01-27T10:12:40;97279.28;;;7.13;49.04
21185;BME280;18176;49.502;11.754;2023-01-27T10:17:14;97286.19;;;7.20;48.96
21185;BME280;18176;49.502;11.754;2023-01-27T10:21:30;97247.66;;;7.06;48.59
21185;BME280;18176;49.502;11.754;2023-01-27T10:25:49;97266.88;;;7.00;49.55
21185;BME280;18176;49.502;11.754;2023-01-27T10:29:57;97271.16;;;7.01;49.05
21185;BME280;18176;49.502;11.754;2023-01-27T10:34:12;97249.31;;;7.20;48.97
21185;BME280;18176;49.502;11.754;2023-01-27T10:38:34;97263.09;;;7.48;48.44
21185;BME280;18176;49.502;11.754;2023-01-27T10:42:44;97272.88;;;7.41;47.83
21185;BME280;18176;49.502;11.754;2023-01-27T10:46:58;97272.03;;;7.34;48.37
21185;BME280;18176;49.502;11.754;2023-01-27T10:51:06;97256.22;;;7.54;48.38
21185;BME280;18176;49.502;11.754;2023-01-27T10:55:18;97273.66;;;7.94;47.31
21185;BME280;18176;49.502;11.754;2023-01-27T10:59:29;97245.25;;;8.03;46.92
21185;BME280;18176;49.502;11.754;2023-01-27T11:03:38;97266.06;;;8.50;46.06
21185;BME280;18176;49.502;11.754;2023-01-27T11:07:59;97274.03;;;8.11;46.36
21185;BME280;18176;49.502;11.754;2023-01-27T11:12:09;97284.22;;;7.61;47.38
21185;BME280;18176;49.502;11.754;2023-01-27T11:16:15;97256.19;;;7.28;48.23
21185;BME280;18176;49.502;11.754;2023-01-27T11:20:27;97270.00;;;7.49;48.05
21185;BME280;18176;49.502;11.754;2023-01-27T11:29:27;97282.31;;;7.03;48.96
21185;BME280;18176;49.502;11.754;2023-01-27T11:33:47;97265.13;;;7.20;48.39
21185;BME280;18176;49.502;11.754;2023-01-27T11:38:00;97264.06;;;6.95;49.44
21185;BME280;18176;49.502;11.754;2023-01-27T11:42:12;97233.78;;;6.71;49.74
21185;BME280;18176;49.502;11.754;2023-01-27T11:46:21;97244.00;;;7.00;49.81
21185;BME280;18176;49.502;11.754;2023-01-27T11:50:28;97233.44;;;7.00;49.53
21185;BME280;18176;49.502;11.754;2023-01-27T11:54:34;97222.53;;;7.10;48.92
21185;BME280;18176;49.502;11.754;2023-01-27T11:58:40;97226.19;;;7.09;49.45
21185;BME280;18176;49.502;11.754;2023-01-27T12:02:53;97226.59;;;7.19;49.13
21185;BME280;18176;49.502;11.754;2023-01-27T12:07:03;97216.66;;;7.28;48.63
21185;BME280;18176;49.502;11.754;2023-01-27T12:11:29;97198.63;;;7.64;48.13
21185;BME280;18176;49.502;11.754;2023-01-27T12:15:34;97224.13;;;8.03;47.30
21185;BME280;18176;49.502;11.754;2023-01-27T12:19:45;97170.47;;;8.22;46.29
21185;BME280;18176;49.502;11.754;2023-01-27T12:23:52;97210.22;;;8.46;46.03
21185;BME280;18176;49.502;11.754;2023-01-27T12:28:00;97218.69;;;8.55;46.51
21185;BME280;18176;49.502;11.754;2023-01-27T12:32:12;97186.22;;;8.48;46.25
21185;BME280;18176;49.502;11.754;2023-01-27T12:36:22;97201.47;;;8.90;45.64
21185;BME280;18176;49.502;11.754;2023-01-27T12:40:27;97210.34;;;9.02;45.41
21185;BME280;18176;49.502;11.754;2023-01-27T12:49:20;97184.00;;;7.74;47.60
21185;BME280;18176;49.502;11.754;2023-01-27T12:53:27;97212.00;;;7.82;47.80
21185;BME280;18176;49.502;11.754;2023-01-27T12:57:31;97173.25;;;7.69;47.79
21185;BME280;18176;49.502;11.754;2023-01-27T13:01:35;97211.72;;;8.10;47.94
21185;BME280;18176;49.502;11.754;2023-01-27T13:05:39;97188.09;;;8.41;46.71
21185;BME280;18176;49.502;11.754;2023-01-27T13:09:52;97204.94;;;8.46;46.34
21185;BME280;18176;49.502;11.754;2023-01-27T13:13:57;97189.16;;;8.27;46.22
21185;BME280;18176;49.502;11.754;2023-01-27T13:17:58;97196.88;;;8.28;46.94
21185;BME280;18176;49.502;11.754;2023-01-27T13:22:01;97182.91;;;8.02;47.08
21185;BME280;18176;49.502;11.754;2023-01-27T13:26:14;97203.75;;;8.23;47.21
21185;BME280;18176;49.502;11.754;2023-01-27T13:30:24;97208.84;;;8.18;47.07
21185;BME280;18176;49.502;11.754;2023-01-27T13:34:47;97200.13;;;8.17;47.00
21185;BME280;18176;49.502;11.754;2023-01-27T13:38:56;97224.53;;;8.00;47.26
21185;BME280;18176;49.502;11.754;2023-01-27T13:43:08;97206.31;;;7.65;47.94
21185;BME280;18176;49.502;11.754;2023-01-27T13:47:17;97231.47;;;7.74;48.01
21185;BME280;18176;49.502;11.754;2023-01-27T13:51:21;97199.06;;;7.41;48.44
21185;BME280;18176;49.502;11.754;2023-01-27T13:55:43;97243.25;;;7.59;48.62
21185;BME280;18176;49.502;11.754;2023-01-27T14:00:05;97235.13;;;7.47;48.53
21185;BME280;18176;49.502;11.754;2023-01-27T14:09:13;97226.59;;;7.06;49.14
21185;BME280;18176;49.502;11.754;2023-01-27T14:13:46;97242.78;;;7.16;49.22
21185;BME280;18176;49.502;11.754;2023-01-27T14:18:01;97212.34;;;6.81;49.48
21185;BME280;18176;49.502;11.754;2023-01-27T14:22:14;97242.41;;;7.06;49.68
21185;BME280;18176;49.502;11.754;2023-01-27T14:26:34;97249.97;;;6.68;50.18
21185;BME280;18176;49.502;11.754;2023-01-27T14:30:41;97251.00;;;6.67;50.29
21185;BME280;18176;49.502;11.754;2023-01-27T14:35:03;97150.09;;;6.00;50.77
21185;BME280;18176;49.502;11.754;2023-01-27T14:39:18;97261.78;;;6.38;50.76
21185;BME280;18176;49.502;11.754;2023-01-27T14:43:33;97249.31;;;6.47;51.20
21185;BME280;18176;49.502;11.754;2023-01-27T14:47:45;97239.63;;;6.54;50.59
21185;BME280;18176;49.502;11.754;2023-01-27T14:51:58;97265.00;;;6.74;50.55
21185;BME280;18176;49.502;11.754;2023-01-27T14:56:10;97223.19;;;6.52;50.53
21185;BME280;18176;49.502;11.754;2023-01-27T15:00:27;97261.78;;;6.79;50.22
21185;BME280;18176;49.502;11.754;2023-01-27T15:04:45;97258.69;;;6.69;50.51
21185;BME280;18176;49.502;11.754;2023-01-27T15:09:01;97271.09;;;6.81;50.28
21185;BME280;18176;49.502;11.754;2023-01-27T15:13:34;97250.78;;;6.62;50.42
21185;BME280;18176;49.502;11.754;2023-01-27T15:17:56;97273.59;;;6.49;50.88
21185;BME280;18176;49.502;11.754;2023-01-27T15:22:31;97257.59;;;6.50;50.96
21185;BME280;18176;49.502;11.754;2023-01-27T15:26:41;97267.25;;;6.36;51.10
21185;BME280;18176;49.502;11.754;2023-01-27T15:31:08;97276.22;;;6.49;51.06
21185;BME280;18176;49.502;11.754;2023-01-27T15:35:37;97277.63;;;6.45;51.13
21185;BME280;18176;49.502;11.754;2023-01-27T15:39:53;97287.47;;;6.29;51.33
21185;BME280;18176;49.502;11.754;2023-01-27T15:44:14;97282.09;;;6.10;51.83
21185;BME280;18176;49.502;11.754;2023-01-27T15:48:20;97289.25;;;6.22;51.72
21185;BME280;18176;49.502;11.754;2023-01-27T15:52:29;97287.47;;;6.29;51.71
21185;BME280;18176;49.502;11.754;2023-01-27T15:56:43;97287.84;;;6.26;51.72
21185;BME280;18176;49.502;11.754;2023-01-27T16:00:54;97283.19;;;5.94;52.52
21185;BME280;18176;49.502;11.754;2023-01-27T16:05:07;97292.19;;;6.06;52.23
21185;BME280;18176;49.502;11.754;2023-01-27T16:09:30;97296.69;;;6.12;52.22
21185;BME280;18176;49.502;11.754;2023-01-27T16:13:34;97307.66;;;6.22;52.35
21185;BME280;18176;49.502;11.754;2023-01-27T16:17:58;97319.34;;;6.13;52.47
21185;BME280;18176;49.502;11.754;2023-01-27T16:22:02;97321.72;;;6.08;52.32
21185;BME280;18176;49.502;11.754;2023-01-27T16:26:18;97327.16;;;6.00;52.55
21185;BME280;18176;49.502;11.754;2023-01-27T16:30:25;97328.06;;;5.86;52.87
21185;BME280;18176;49.502;11.754;2023-01-27T16:34:35;97325.28;;;5.73;53.19
21185;BME280;18176;49.502;11.754;2023-01-27T16:38:39;97337.53;;;5.87;52.87
21185;BME280;18176;49.502;11.754;2023-01-27T16:42:58;97334.94;;;5.66;53.35
21185;BME280;18176;49.502;11.754;2023-01-27T16:47:03;97333.91;;;5.67;53.34
21185;BME280;18176;49.502;11.754;2023-01-27T16:51:19;97332.16;;;5.53;53.84
21185;BME280;18176;49.502;11.754;2023-01-27T16:55:22;97341.78;;;5.46;53.93
21185;BME280;18176;49.502;11.754;2023-01-27T16:59:26;97327.72;;;5.53;53.39
21185;BME280;18176;49.502;11.754;2023-01-27T17:03:33;97358.44;;;5.74;53.32
21185;BME280;18176;49.502;11.754;2023-01-27T17:07:38;97354.88;;;5.60;53.62
21185;BME280;18176;49.502;11.754;2023-01-27T17:11:41;97355.34;;;5.64;53.65
21185;BME280;18176;49.502;11.754;2023-01-27T17:15:42;97353.97;;;5.68;53.36
21185;BME280;18176;49.502;11.754;2023-01-27T17:19:46;97357.81;;;5.72;53.50
21185;BME280;18176;49.502;11.754;2023-01-27T17:23:50;97361.75;;;5.83;53.32
21185;BME280;18176;49.502;11.754;2023-01-27T17:27:51;97364.88;;;5.86;53.29
21185;BME280;18176;49.502;11.754;2023-01-27T17:31:51;97356.94;;;5.65;53.79
21185;BME280;18176;49.502;11.754;2023-01-27T17:35:54;97338.44;;;5.73;53.45
21185;BME280;18176;49.502;11.754;2023-01-27T17:40:01;97359.06;;;5.76;53.74
21185;BME280;18176;49.502;11.754;2023-01-27T17:44:09;97363.44;;;5.69;53.89
21185;BME280;18176;49.502;11.754;2023-01-27T17:48:10;97360.84;;;5.90;53.49
21185;BME280;18176;49.502;11.754;2023-01-27T17:52:18;97347.00;;;5.60;53.68
21185;BME280;18176;49.502;11.754;2023-01-27T17:56:27;97363.09;;;5.72;53.94
21185;BME280;18176;49.502;11.754;2023-01-27T18:00:31;97354.56;;;5.70;54.03
21185;BME280;18176;49.502;11.754;2023-01-27T18:04:39;97374.38;;;5.87;53.85
21185;BME280;18176;49.502;11.754;2023-01-27T18:08:50;97349.69;;;5.67;54.08
21185;BME280;18176;49.502;11.754;2023-01-27T18:12:54;97369.59;;;5.97;53.72
21185;BME280;18176;49.502;11.754;2023-01-27T18:17:00;97364.38;;;5.83;54.10
21185;BME280;18176;49.502;11.754;2023-01-27T18:21:04;97341.69;;;5.75;53.93
21185;BME280;18176;49.502;11.754;2023-01-27T18:25:16;97368.97;;;5.95;53.86
21185;BME280;18176;49.502;11.754;2023-01-27T18:29:25;97371.00;;;5.93;53.98
21185;BME280;18176;49.502;11.754;2023-01-27T18:33:26;97358.00;;;5.92;53.53
21185;BME280;18176;49.502;11.754;2023-01-27T18:37:29;97379.50;;;5.95;53.97
21185;BME280;18176;49.502;11.754;2023-01-27T18:41:30;97377.66;;;5.89;54.13
21185;BME280;18176;49.502;11.754;2023-01-27T18:45:36;97363.22;;;5.85;53.84
21185;BME280;18176;49.502;11.754;2023-01-27T18:49:37;97365.09;;;5.70;54.17
21185;BME280;18176;49.502;11.754;2023-01-27T18:53:37;97366.09;;;5.69;54.50
21185;BME280;18176;49.502;11.754;2023-01-27T18:57:37;97385.50;;;5.68;54.79
21185;BME280;18176;49.502;11.754;2023-01-27T19:01:40;97393.50;;;5.81;54.53
21185;BME280;18176;49.502;11.754;2023-01-27T19:05:40;97392.16;;;5.64;55.11
21185;BME280;18176;49.502;11.754;2023-01-27T19:09:41;97374.63;;;5.50;54.79
21185;BME280;18176;49.502;11.754;2023-01-27T19:13:42;97398.84;;;5.88;54.37
21185;BME280;18176;49.502;11.754;2023-01-27T19:17:46;97405.03;;;6.01;54.31
21185;BME280;18176;49.502;11.754;2023-01-27T19:21:46;97411.94;;;6.02;53.89
21185;BME280;18176;49.502;11.754;2023-01-27T19:25:50;97387.75;;;5.92;53.96
21185;BME280;18176;49.502;11.754;2023-01-27T19:29:51;97414.41;;;6.10;53.99
21185;BME280;18176;49.502;11.754;2023-01-27T19:33:54;97407.19;;;6.12;53.64
21185;BME280;18176;49.502;11.754;2023-01-27T19:37:55;97413.44;;;6.11;53.99
21185;BME280;18176;49.502;11.754;2023-01-27T19:41:56;97412.03;;;6.15;53.99
21185;BME280;18176;49.502;11.754;2023-01-27T19:45:56;97424.56;;;6.13;53.94
21185;BME280;18176;49.502;11.754;2023-01-27T19:49:59;97424.47;;;6.00;54.21
21185;BME280;18176;49.502;11.754;2023-01-27T19:54:01;97432.66;;;6.12;54.19
21185;BME280;18176;49.502;11.754;2023-01-27T19:58:01;97435.09;;;5.92;54.42
21185;BME280;18176;49.502;11.754;2023-01-27T20:02:02;97396.84;;;5.90;54.14
21185;BME280;18176;49.502;11.754;2023-01-27T20:06:14;97442.13;;;6.06;54.39
21185;BME280;18176;49.502;11.754;2023-01-27T20:10:18;97448.00;;;6.08;54.22
21185;BME280;18176;49.502;11.754;2023-01-27T20:14:19;97416.69;;;5.92;54.23
21185;BME280;18176;49.502;11.754;2023-01-27T20:18:22;97454.53;;;6.12;54.34
21185;BME280;18176;49.502;11.754;2023-01-27T20:22:25;97444.06;;;6.19;54.18
21185;BME280;18176;49.502;11.754;2023-01-27T20:26:26;97448.13;;;6.21;54.22
21185;BME280;18176;49.502;11.754;2023-01-27T20:30:32;97448.22;;;6.34;53.77
21185;BME280;18176;49.502;11.754;2023-01-27T20:34:33;97447.88;;;6.38;53.81
21185;BME280;18176;49.502;11.754;2023-01-27T20:38:37;97456.63;;;6.45;53.46
21185;BME280;18176;49.502;11.754;2023-01-27T20:42:38;97461.66;;;6.40;54.15
21185;BME280;18176;49.502;11.754;2023-01-27T20:46:38;97459.94;;;6.32;54.48
21185;BME280;18176;49.502;11.754;2023-01-27T20:50:38;97448.88;;;6.15;55.28
21185;BME280;18176;49.502;11.754;2023-01-27T20:54:41;97443.88;;;5.99;56.01
21185;BME280;18176;49.502;11.754;2023-01-27T20:58:42;97452.53;;;6.14;56.33
21185;BME280;18176;49.502;11.754;2023-01-27T21:02:42;97451.25;;;6.10;56.80
21185;BME280;18176;49.502;11.754;2023-01-27T21:06:42;97464.03;;;6.13;57.12
21185;BME280;18176;49.502;11.754;2023-01-27T21:10:45;97463.03;;;6.14;57.23
21185;BME280;18176;49.502;11.754;2023-01-27T21:14:45;97453.09;;;6.10;57.65
21185;BME280;18176;49.502;11.754;2023-01-27T21:18:45;97453.75;;;6.18;57.50
21185;BME280;18176;49.502;11.754;2023-01-27T21:22:46;97448.13;;;6.21;57.64
21185;BME280;18176;49.502;11.754;2023-01-27T21:26:49;97440.34;;;6.13;57.68
21185;BME280;18176;49.502;11.754;2023-01-27T21:30:50;97448.13;;;6.21;57.75
21185;BME280;18176;49.502;11.754;2023-01-27T21:34:50;97441.53;;;6.11;58.04
21185;BME280;18176;49.502;11.754;2023-01-27T21:38:52;97431.34;;;6.01;58.06
21185;BME280;18176;49.502;11.754;2023-01-27T21:42:56;97464.09;;;6.20;57.96
21185;BME280;18176;49.502;11.754;2023-01-27T21:47:11;97436.75;;;6.14;57.75
21185;BME280;18176;49.502;11.754;2023-01-27T21:51:12;97423.28;;;6.03;58.02
21185;BME280;18176;49.502;11.754;2023-01-27T21:55:14;97457.53;;;6.30;57.70
